Fremont, Ohio
Current Conditions -  °F | °C
As of 5:47 PM on Wednesday 26 Nov 2014 (Local Time) from KPCW Reporting Station
Overcast Overcast  
Wind Chill: 29°   Ceiling: 3200
Heat Index: 36°   Visibility: 10mi
Dew Point: 30°   Wind: 8mph
Humidity: 81%   Direction: 340°NNW
Pressure: 30.07"   Gusts: NA
Location:  41.35°N, 83.11°W
Report Text: KPCW 262247Z AUTO 34007KT 10SM SCT019 BKN032 OVC043 02/M01 A3007 RMK AO2
Loading
Personal Weather Stations






























Interactive Weather Map New forecast layout! Learn more

10-Day Weather Forecast

Advertisements
Track Severe Weather on mobile